Terminal Aerodrome Forecast
Issued by NWS

Home | Current Version | Previous Version | Graphics & Text | Print | Product List | Glossary On
Versions: 1 2 3 4 5 6 7 8 9 10 11 12 13 14 15 16 17 18 19
516
FTUS43 KLSX 272320
TAFSUS
TAF
KSUS 272320Z 2800/2824 14005KT P6SM SKC
     FM281300 17010G16KT P6SM SCT250
     FM281600 18012G22KT P6SM SCT045=

USA.gov is the U.S. government's official web portal to all federal, state and local government web resources and services.